createdAt,value
2023-04-01T00:00:35.522Z,8.3
2023-04-01T00:03:38.873Z,8.2
2023-04-01T00:06:26.894Z,7.3
2023-04-01T00:09:14.618Z,6.8
2023-04-01T00:12:02.411Z,11.3
2023-04-01T00:14:50.616Z,8.3
2023-04-01T00:17:38.218Z,6.4
2023-04-01T00:20:26.083Z,7.9
2023-04-01T00:23:14.375Z,8.2
2023-04-01T00:26:03.525Z,7.4
2023-04-01T00:28:51.442Z,8.9
2023-04-01T00:31:39.018Z,7.2
2023-04-01T00:34:26.627Z,6.5
2023-04-01T00:37:14.254Z,6.3
2023-04-01T00:40:02.088Z,5.8
2023-04-01T00:42:52.591Z,8.2
2023-04-01T00:45:42.583Z,7
2023-04-01T00:48:31.806Z,7
2023-04-01T00:51:22.295Z,7.7
2023-04-01T00:54:13.750Z,6.9
2023-04-01T00:57:05.647Z,6.6
2023-04-01T00:59:56.320Z,6.1
2023-04-01T01:02:45.589Z,6.8
2023-04-01T01:05:46.320Z,6.9
2023-04-01T01:08:54.826Z,8.2
2023-04-01T01:11:56.630Z,8.4
2023-04-01T01:14:53.649Z,8
2023-04-01T01:17:54.939Z,7.3
2023-04-01T01:20:49.367Z,8
2023-04-01T01:24:29.366Z,8.7
2023-04-01T01:27:37.518Z,6.6
2023-04-01T01:30:31.984Z,6.7
2023-04-01T01:33:25.107Z,6.9
2023-04-01T01:36:25.954Z,8.3
2023-04-01T01:39:17.180Z,8.5
2023-04-01T01:42:12.234Z,6.7
2023-04-01T01:45:03.561Z,7.7
2023-04-01T01:47:54.814Z,8
2023-04-01T01:50:46.061Z,6.9
2023-04-01T01:53:35.056Z,7.7
2023-04-01T01:56:24.036Z,6.5
2023-04-01T01:59:15.289Z,8.7
2023-04-01T02:02:06.640Z,8
2023-04-01T02:04:56.842Z,7.1
2023-04-01T02:07:46.029Z,7.9
2023-04-01T02:10:42.980Z,7
2023-04-01T02:13:39.910Z,9.1
2023-04-01T02:16:34.236Z,9.6
2023-04-01T02:19:26.610Z,7.3
2023-04-01T02:22:20.810Z,9.6
2023-04-01T02:25:12.237Z,7.2
2023-04-01T02:28:03.477Z,7.6
2023-04-01T02:30:53.918Z,7.5
2023-04-01T02:33:44.296Z,9.5
2023-04-01T02:36:33.400Z,8.5
2023-04-01T02:39:22.367Z,7.1
2023-04-01T02:42:11.789Z,7.7
2023-04-01T02:45:00.737Z,7.8
2023-04-01T02:47:50.093Z,7.8
2023-04-01T02:50:37.663Z,8.7
2023-04-01T02:53:25.287Z,6.8
2023-04-01T02:56:12.887Z,7.7
2023-04-01T02:59:00.533Z,7
2023-04-01T03:01:48.741Z,6.7
2023-04-01T03:04:36.192Z,9.3
2023-04-01T03:07:23.926Z,7.7
2023-04-01T03:10:11.465Z,8.5
2023-04-01T03:12:59.485Z,8.9
2023-04-01T03:15:47.147Z,8.7
2023-04-01T03:18:34.849Z,7
2023-04-01T03:21:22.385Z,8.8
2023-04-01T03:24:10.704Z,6.9
2023-04-01T03:26:58.609Z,6.6
2023-04-01T03:29:46.706Z,7.7
2023-04-01T03:32:34.640Z,8.8
2023-04-01T03:35:22.316Z,10.4
2023-04-01T03:38:10.357Z,8.1
2023-04-01T03:40:58.352Z,9
2023-04-01T03:43:46.527Z,8.1
2023-04-01T03:46:34.098Z,7.7
2023-04-01T03:49:21.824Z,9.7
2023-04-01T03:52:09.296Z,9
2023-04-01T03:54:57.750Z,7
2023-04-01T03:57:46.995Z,7.3
2023-04-01T04:00:34.474Z,8
2023-04-01T04:03:22.650Z,6.8
2023-04-01T04:06:10.354Z,7.9
2023-04-01T04:08:59.111Z,9.4
2023-04-01T04:11:47.143Z,8.1
2023-04-01T04:14:35.063Z,9.9
2023-04-01T04:17:22.652Z,9.8
2023-04-01T04:20:10.547Z,8.6
2023-04-01T04:22:58.437Z,8.1
2023-04-01T04:25:47.415Z,6.6
2023-04-01T04:28:45.779Z,9.2
2023-04-01T04:31:33.955Z,7.8
2023-04-01T04:34:21.600Z,8.1
2023-04-01T04:37:09.219Z,9.2
2023-04-01T04:39:56.938Z,8.5
2023-04-01T04:42:45.564Z,8.7
2023-04-01T04:45:33.414Z,8.1
2023-04-01T04:48:21.735Z,8.3
2023-04-01T04:51:09.339Z,8.6
2023-04-01T04:54:01.128Z,9.7
2023-04-01T04:56:49.054Z,8.9
2023-04-01T04:59:37.684Z,9.7
2023-04-01T05:02:25.297Z,8.9
2023-04-01T05:05:12.996Z,7.8
2023-04-01T05:08:00.673Z,8.9
2023-04-01T05:10:48.487Z,8.2
2023-04-01T05:13:35.991Z,8.9
2023-04-01T05:16:23.618Z,10
2023-04-01T05:19:11.251Z,9.8
2023-04-01T05:21:58.937Z,10.5
2023-04-01T05:24:46.634Z,8.6
2023-04-01T05:27:34.555Z,10.5
2023-04-01T05:30:22.140Z,9.5
2023-04-01T05:33:09.755Z,8.7
2023-04-01T05:35:59.045Z,8.8
2023-04-01T05:38:53.668Z,8.2
2023-04-01T05:41:42.608Z,8.4
2023-04-01T05:44:30.590Z,11.2
2023-04-01T05:47:18.298Z,7.9
2023-04-01T05:50:06.134Z,7.8
2023-04-01T05:52:54.956Z,7.4
2023-04-01T05:55:43.734Z,6.6
2023-04-01T05:58:31.259Z,6.9
2023-04-01T06:01:18.987Z,7.9
2023-04-01T06:04:06.994Z,9.1
2023-04-01T06:07:00.532Z,7.8
2023-04-01T06:09:57.141Z,7.5
2023-04-01T06:12:46.739Z,7.4
2023-04-01T06:15:46.785Z,7.7
2023-04-01T06:18:40.018Z,7.2
2023-04-01T06:21:40.779Z,6.8
2023-04-01T06:24:45.194Z,6.3
2023-04-01T06:27:45.444Z,8.1
2023-04-01T06:30:47.173Z,7.7
2023-04-01T06:33:43.970Z,8.9
2023-04-01T06:36:45.569Z,9.5
2023-04-01T06:39:50.751Z,9.8
2023-04-01T06:43:19.486Z,9.5
2023-04-01T06:46:19.325Z,11.2
2023-04-01T06:49:17.089Z,9.9
2023-04-01T06:52:19.636Z,9.4
2023-04-01T06:55:13.624Z,10.3
2023-04-01T06:58:12.748Z,16.8
2023-04-01T07:01:07.884Z,26.1
2023-04-01T07:04:00.698Z,11.2
2023-04-01T07:06:52.911Z,16
2023-04-01T07:09:45.136Z,9.7
2023-04-01T07:12:37.625Z,12.4
2023-04-01T07:15:33.241Z,9.7
2023-04-01T07:18:25.313Z,8.7
2023-04-01T07:21:20.629Z,7
2023-04-01T07:24:15.329Z,8.5
2023-04-01T07:27:09.805Z,8.4
2023-04-01T07:29:59.960Z,8.2
2023-04-01T07:32:50.462Z,6.9
2023-04-01T07:35:46.136Z,8.4
2023-04-01T07:38:45.772Z,8.7
2023-04-01T07:41:45.762Z,8.2
2023-04-01T07:44:39.837Z,8.6
2023-04-01T07:47:36.207Z,8.4
2023-04-01T07:50:42.346Z,8.4
2023-04-01T07:53:47.734Z,9.7
2023-04-01T07:56:48.047Z,9.2
2023-04-01T07:59:41.908Z,11.2
2023-04-01T08:02:39.538Z,9.6
2023-04-01T08:05:45.682Z,10.2
2023-04-01T08:08:41.232Z,10
2023-04-01T08:11:43.975Z,7.9
2023-04-01T08:14:43.862Z,9.2
2023-04-01T08:17:42.520Z,9.1
2023-04-01T08:20:40.256Z,11
2023-04-01T08:23:34.236Z,8.9
2023-04-01T08:26:30.430Z,10.1
2023-04-01T08:29:25.783Z,10.8
2023-04-01T08:32:23.352Z,10
2023-04-01T08:35:16.302Z,9.7
2023-04-01T08:38:12.723Z,10.7
2023-04-01T08:41:06.629Z,10.9
2023-04-01T08:44:14.898Z,10.6
2023-04-01T08:47:19.683Z,10.3
2023-04-01T08:50:53.879Z,13
2023-04-01T08:53:58.327Z,11.6
2023-04-01T08:57:07.597Z,12.2
2023-04-01T09:00:01.563Z,12.7
2023-04-01T09:03:06.383Z,13
2023-04-01T09:06:21.653Z,11.9
2023-04-01T09:09:18.590Z,12.9
2023-04-01T09:12:50.161Z,13.2
2023-04-01T09:15:53.280Z,12.4
2023-04-01T09:18:59.326Z,13.5
2023-04-01T09:22:03.416Z,14.8
2023-04-01T09:25:07.407Z,14.5
2023-04-01T09:28:15.996Z,14
2023-04-01T09:31:06.281Z,16.7
2023-04-01T09:34:06.611Z,14.7
2023-04-01T09:37:11.716Z,13.1
2023-04-01T09:40:07.300Z,14.5
2023-04-01T09:43:03.724Z,13.7
2023-04-01T09:46:07.866Z,13.7
2023-04-01T09:49:04.912Z,16.4
2023-04-01T09:52:20.880Z,14.3
2023-04-01T09:55:21.338Z,14.1
2023-04-01T09:58:49.010Z,15.9
2023-04-01T10:01:54.307Z,15.2
2023-04-01T10:05:09.229Z,15
2023-04-01T10:08:26.567Z,15.3
2023-04-01T10:11:37.567Z,18.4
2023-04-01T10:15:10.732Z,15.8
2023-04-01T10:19:40.189Z,17.8
2023-04-01T10:22:46.081Z,22
2023-04-01T10:26:07.456Z,20.2
2023-04-01T10:29:35.183Z,18.2
2023-04-01T10:32:43.636Z,17.7
2023-04-01T10:36:18.975Z,16.5
2023-04-01T10:39:28.252Z,20.7
2023-04-01T10:42:23.583Z,30.3
2023-04-01T10:45:59.814Z,19.3
2023-04-01T10:50:25.346Z,18.6
2023-04-01T10:53:55.388Z,18.4
2023-04-01T10:57:02.340Z,17.9
2023-04-01T11:00:09.648Z,18.6
2023-04-01T11:03:48.977Z,15.2
2023-04-01T11:07:39.519Z,16.5
2023-04-01T11:10:52.204Z,17.4
2023-04-01T11:14:04.068Z,19.6
2023-04-01T11:18:14.053Z,14
2023-04-01T11:21:27.695Z,13.7
2023-04-01T11:24:39.144Z,17.1
2023-04-01T11:27:57.965Z,14.2
2023-04-01T11:31:11.089Z,11.3
2023-04-01T11:34:16.375Z,11.9
2023-04-01T11:37:23.778Z,11.5
2023-04-01T11:40:23.263Z,11.9
2023-04-01T11:43:32.432Z,11.4
2023-04-01T11:46:29.402Z,11.1
2023-04-01T11:49:28.865Z,13.6
2023-04-01T11:52:30.559Z,12.3
2023-04-01T11:55:39.432Z,11.4
2023-04-01T11:58:39.798Z,11.8
2023-04-01T12:01:45.711Z,13.2
2023-04-01T12:04:46.067Z,11.1
2023-04-01T12:07:48.679Z,8.7
2023-04-01T12:10:51.483Z,11.7
2023-04-01T12:13:51.700Z,9.2
2023-04-01T12:16:55.495Z,11
2023-04-01T12:19:56.615Z,7
2023-04-01T12:23:04.669Z,11.5
2023-04-01T12:26:08.572Z,8.5
2023-04-01T12:29:17.128Z,9.4
2023-04-01T12:32:26.333Z,11.8
2023-04-01T12:35:28.463Z,9.1
2023-04-01T12:38:28.823Z,8.5
2023-04-01T12:41:33.337Z,8.5
2023-04-01T12:44:34.056Z,8.7
2023-04-01T12:47:39.326Z,7.4
2023-04-01T12:50:46.247Z,9.9
2023-04-01T12:53:56.848Z,7.7
2023-04-01T12:57:04.756Z,8.1
2023-04-01T13:00:14.259Z,8.4
2023-04-01T13:03:29.234Z,6
2023-04-01T13:06:36.741Z,6.7
2023-04-01T13:09:39.433Z,7.6
2023-04-01T13:12:37.261Z,7.3
2023-04-01T13:16:05.153Z,7.8
2023-04-01T13:18:57.858Z,7.4
2023-04-01T13:21:52.566Z,6.3
2023-04-01T13:24:49.738Z,7
2023-04-01T13:27:44.549Z,5.5
2023-04-01T13:30:37.426Z,6.9
2023-04-01T13:33:33.781Z,6.4
2023-04-01T13:36:31.136Z,9.9
2023-04-01T13:39:29.349Z,7.7
2023-04-01T13:42:31.189Z,6.5
2023-04-01T13:45:24.223Z,7.6
2023-04-01T13:48:21.573Z,7.2
2023-04-01T13:51:26.737Z,6.2
2023-04-01T13:54:31.928Z,6
2023-04-01T13:57:46.506Z,5.7
2023-04-01T14:00:50.927Z,6.1
2023-04-01T14:03:50.702Z,6.5
2023-04-01T14:07:16.535Z,11.8
2023-04-01T14:10:17.400Z,6.8
2023-04-01T14:13:11.581Z,6.3
2023-04-01T14:16:10.043Z,7.5
2023-04-01T14:19:14.389Z,7.7
2023-04-01T14:22:17.799Z,7.7
2023-04-01T14:25:14.319Z,7.2
2023-04-01T14:28:16.198Z,8.5
2023-04-01T14:31:17.254Z,10.4
2023-04-01T14:34:20.490Z,7.3
2023-04-01T14:37:24.310Z,9.4
2023-04-01T14:40:35.180Z,6.6
2023-04-01T14:43:40.709Z,8.5
2023-04-01T14:46:43.355Z,6.6
2023-04-01T14:50:03.727Z,7.4
2023-04-01T14:52:59.284Z,8.2
2023-04-01T14:56:02.999Z,7.1
2023-04-01T14:58:51.771Z,6.9
2023-04-01T15:01:48.389Z,6.8
2023-04-01T15:04:46.206Z,6.7
2023-04-01T15:07:42.299Z,8
2023-04-01T15:10:55.119Z,6.5
2023-04-01T15:14:29.758Z,7.3
2023-04-01T15:17:29.370Z,8.8
2023-04-01T15:20:49.263Z,7.4
2023-04-01T15:24:02.557Z,6.6
2023-04-01T15:26:58.516Z,6.2
2023-04-01T15:30:18.310Z,6.5
2023-04-01T15:33:16.692Z,6.4
2023-04-01T15:36:17.478Z,6
2023-04-01T15:39:17.001Z,5.9
2023-04-01T15:42:11.314Z,5.6
2023-04-01T15:45:12.735Z,5.3
2023-04-01T15:48:20.643Z,6.6
2023-04-01T15:51:21.451Z,7
2023-04-01T15:54:22.672Z,6.2
2023-04-01T15:57:31.698Z,7.7
2023-04-01T16:00:27.989Z,6.6
2023-04-01T16:03:18.819Z,6.7
2023-04-01T16:06:19.458Z,7
2023-04-01T16:09:24.151Z,8.1
2023-04-01T16:12:29.342Z,6
2023-04-01T16:15:32.629Z,9
2023-04-01T16:18:30.734Z,7.8
2023-04-01T16:21:30.158Z,5.8
2023-04-01T16:24:27.885Z,5.3
2023-04-01T16:27:21.927Z,7.2
2023-04-01T16:30:21.514Z,7
2023-04-01T16:33:20.880Z,8.4
2023-04-01T16:36:18.017Z,12.2
2023-04-01T16:39:14.940Z,11.2
2023-04-01T16:42:15.566Z,8.3
2023-04-01T16:45:16.935Z,7.8
2023-04-01T16:48:18.982Z,6.8
2023-04-01T16:51:14.201Z,8.3
2023-04-01T16:54:04.788Z,9.8
2023-04-01T16:57:02.126Z,9.3
2023-04-01T17:00:03.068Z,8.3
2023-04-01T17:03:08.664Z,8.7
2023-04-01T17:06:04.192Z,10.7
2023-04-01T17:09:06.239Z,7.6
2023-04-01T17:12:10.586Z,19.4
2023-04-01T17:15:12.258Z,12.5
2023-04-01T17:18:07.984Z,9.6
2023-04-01T17:21:05.691Z,8.7
2023-04-01T17:23:59.674Z,10
2023-04-01T17:26:59.694Z,10.3
2023-04-01T17:30:01.181Z,10.6
2023-04-01T17:32:59.555Z,9.7
2023-04-01T17:36:06.464Z,8.7
2023-04-01T17:39:07.342Z,8
2023-04-01T17:42:11.001Z,7.8
2023-04-01T17:45:03.605Z,9.2
2023-04-01T17:47:57.643Z,9.1
2023-04-01T17:50:56.635Z,10.9
2023-04-01T17:53:58.762Z,7.8
2023-04-01T17:57:01.689Z,7.8
2023-04-01T18:00:13.296Z,7.9
2023-04-01T18:03:10.086Z,9.3
2023-04-01T18:06:10.807Z,9
2023-04-01T18:09:03.175Z,10.5
2023-04-01T18:12:04.044Z,8.2
2023-04-01T18:15:04.054Z,8.1
2023-04-01T18:18:07.722Z,7.9
2023-04-01T18:21:11.332Z,5.7
2023-04-01T18:24:05.439Z,6.8
2023-04-01T18:27:04.583Z,8.2
2023-04-01T18:30:04.346Z,7.7
2023-04-01T18:33:01.587Z,8.1
2023-04-01T18:36:01.451Z,7.6
2023-04-01T18:39:01.743Z,8
2023-04-01T18:41:57.265Z,9.1
2023-04-01T18:44:55.361Z,6.6
2023-04-01T18:48:00.926Z,7.4
2023-04-01T18:51:01.541Z,6.2
2023-04-01T18:53:59.824Z,6.1
2023-04-01T18:56:55.213Z,7.3
2023-04-01T18:59:53.512Z,9.1
2023-04-01T19:02:50.639Z,7.6
2023-04-01T19:05:45.495Z,6.6
2023-04-01T19:08:36.905Z,5.7
2023-04-01T19:11:27.104Z,6.4
2023-04-01T19:14:35.156Z,5.6
2023-04-01T19:17:38.225Z,9.4
2023-04-01T19:20:38.011Z,7
2023-04-01T19:23:31.080Z,6.3
2023-04-01T19:26:48.394Z,5.7
2023-04-01T19:29:45.750Z,6.2
2023-04-01T19:32:52.536Z,5.2
2023-04-01T19:35:49.990Z,7
2023-04-01T19:38:49.819Z,6.3
2023-04-01T19:41:47.162Z,5.7
2023-04-01T19:44:41.515Z,7.7
2023-04-01T19:47:49.491Z,5.7
2023-04-01T19:50:49.541Z,7
2023-04-01T19:53:43.666Z,6.3
2023-04-01T19:56:39.899Z,7
2023-04-01T19:59:34.171Z,6.4
2023-04-01T20:02:29.539Z,5.8
2023-04-01T20:05:29.881Z,8.4
2023-04-01T20:08:29.716Z,10.4
2023-04-01T20:11:26.796Z,6.9
2023-04-01T20:14:27.420Z,6
2023-04-01T20:17:23.591Z,6.8
2023-04-01T20:20:17.965Z,6.6
2023-04-01T20:23:07.899Z,9.8
2023-04-01T20:26:17.475Z,6.6
2023-04-01T20:29:10.900Z,6.4
2023-04-01T20:32:33.370Z,6.1
2023-04-01T20:35:34.167Z,7.8
2023-04-01T20:38:30.767Z,6.8
2023-04-01T20:41:48.800Z,6
2023-04-01T20:44:51.522Z,7.5
2023-04-01T20:47:48.897Z,5.6
2023-04-01T20:50:57.982Z,5.2
2023-04-01T20:53:52.634Z,8.1
2023-04-01T20:56:57.534Z,7
2023-04-01T20:59:52.752Z,6.4
2023-04-01T21:02:57.805Z,7.5
2023-04-01T21:06:02.008Z,8.4
2023-04-01T21:09:01.930Z,8.1
2023-04-01T21:12:03.389Z,6.4
2023-04-01T21:15:00.945Z,7.8
2023-04-01T21:18:08.310Z,6.3
2023-04-01T21:21:22.118Z,8.1
2023-04-01T21:24:26.949Z,9.6
2023-04-01T21:27:31.479Z,10.3
2023-04-01T21:30:30.070Z,9
2023-04-01T21:33:30.135Z,8
2023-04-01T21:36:57.470Z,9.1
2023-04-01T21:40:02.926Z,9
2023-04-01T21:43:30.043Z,9.8
2023-04-01T21:47:07.821Z,8.2
2023-04-01T21:50:32.211Z,10.4
2023-04-01T21:53:33.511Z,8.7
2023-04-01T21:57:03.680Z,11.6
2023-04-01T22:00:19.586Z,10
2023-04-01T22:03:19.664Z,8.4
2023-04-01T22:06:57.018Z,12.7
2023-04-01T22:09:53.584Z,10
2023-04-01T22:12:49.617Z,9.1
2023-04-01T22:15:46.245Z,9.8
2023-04-01T22:18:47.394Z,12.8
2023-04-01T22:21:45.247Z,11.6
2023-04-01T22:24:46.904Z,10.7
2023-04-01T22:27:46.307Z,10.7
2023-04-01T22:30:39.500Z,10.7
2023-04-01T22:33:33.580Z,8.9
2023-04-01T22:36:30.824Z,10.5
2023-04-01T22:39:30.283Z,9
2023-04-01T22:42:36.854Z,8.1
2023-04-01T22:45:29.600Z,11.2
2023-04-01T22:48:34.992Z,8
2023-04-01T22:51:27.354Z,9.1
2023-04-01T22:54:27.455Z,9.1
2023-04-01T22:57:19.014Z,14
2023-04-01T23:00:22.895Z,8.8
2023-04-01T23:03:16.312Z,9.8
2023-04-01T23:06:07.586Z,7.3
2023-04-01T23:09:03.193Z,8.6
2023-04-01T23:11:57.663Z,8.2
2023-04-01T23:14:50.214Z,9.9
2023-04-01T23:17:41.283Z,7.8
2023-04-01T23:20:42.204Z,9.6
2023-04-01T23:23:49.250Z,7.5
2023-04-01T23:26:45.252Z,8.1
2023-04-01T23:29:38.746Z,10.7
2023-04-01T23:32:28.399Z,12.5
2023-04-01T23:35:16.669Z,9.2
2023-04-01T23:38:04.356Z,6.3
2023-04-01T23:40:53.109Z,6.4
2023-04-01T23:43:42.173Z,8.1
2023-04-01T23:46:31.536Z,7.2
2023-04-01T23:49:21.306Z,7.4
2023-04-01T23:52:14.714Z,9.2
2023-04-01T23:55:08.681Z,9.5
2023-04-01T23:58:03.615Z,7.5
